createdAt,value
2022-12-06T00:02:14.352Z,57.43
2022-12-06T00:05:18.513Z,42.93
2022-12-06T00:08:22.184Z,45.23
2022-12-06T00:11:29.738Z,46.00
2022-12-06T00:14:33.467Z,49.00
2022-12-06T00:17:42.782Z,45.07
2022-12-06T00:20:46.774Z,46.13
2022-12-06T00:23:52.599Z,44.73
2022-12-06T00:26:57.723Z,50.93
2022-12-06T00:30:01.565Z,51.67
2022-12-06T00:33:05.657Z,45.63
2022-12-06T00:36:12.853Z,49.63
2022-12-06T00:39:18.843Z,50.40
2022-12-06T00:42:23.993Z,46.10
2022-12-06T00:45:27.728Z,49.80
2022-12-06T00:48:31.724Z,53.50
2022-12-06T00:51:36.739Z,48.77
2022-12-06T00:54:40.395Z,48.87
2022-12-06T00:57:45.473Z,51.57
2022-12-06T01:00:49.370Z,49.17
2022-12-06T01:03:55.305Z,52.83
2022-12-06T01:06:58.867Z,54.97
2022-12-06T01:10:02.444Z,52.07
2022-12-06T01:13:08.415Z,47.73
2022-12-06T01:16:14.819Z,52.07
2022-12-06T01:19:18.395Z,50.37
2022-12-06T01:22:21.950Z,52.90
2022-12-06T01:25:26.443Z,51.70
2022-12-06T01:28:32.132Z,51.03
2022-12-06T01:31:38.758Z,48.13
2022-12-06T01:34:43.744Z,49.40
2022-12-06T01:37:47.264Z,48.97
2022-12-06T01:40:51.544Z,49.60
2022-12-06T01:43:57.835Z,52.03
2022-12-06T01:47:01.447Z,52.80
2022-12-06T01:50:11.590Z,54.70
2022-12-06T01:53:15.796Z,49.30
2022-12-06T01:56:20.489Z,61.47
2022-12-06T01:59:27.037Z,48.83
2022-12-06T02:02:30.747Z,51.30
2022-12-06T02:05:40.305Z,48.63
2022-12-06T02:08:45.828Z,49.33
2022-12-06T02:11:49.539Z,47.27
2022-12-06T02:14:56.932Z,51.53
2022-12-06T02:18:12.279Z,52.13
2022-12-06T02:21:24.912Z,48.93
2022-12-06T02:24:55.985Z,49.77
2022-12-06T02:28:23.102Z,48.83
2022-12-06T02:31:35.089Z,47.27
2022-12-06T02:34:46.540Z,43.50
2022-12-06T02:37:55.846Z,44.30
2022-12-06T02:41:03.120Z,51.37
2022-12-06T02:44:09.962Z,51.27
2022-12-06T02:47:16.952Z,57.50
2022-12-06T02:50:24.252Z,56.07
2022-12-06T02:53:31.383Z,53.97
2022-12-06T02:56:36.136Z,59.20
2022-12-06T02:59:39.731Z,55.20
2022-12-06T03:02:45.064Z,56.30
2022-12-06T03:06:08.666Z,55.40
2022-12-06T03:09:26.386Z,55.93
2022-12-06T03:12:36.358Z,55.40
2022-12-06T03:15:49.775Z,56.30
2022-12-06T03:19:01.222Z,53.57
2022-12-06T03:22:09.591Z,55.07
2022-12-06T03:25:14.453Z,55.10
2022-12-06T03:28:20.113Z,55.23
2022-12-06T03:31:25.761Z,54.13
2022-12-06T03:34:34.398Z,61.43
2022-12-06T03:37:40.356Z,52.60
2022-12-06T03:40:47.844Z,53.80
2022-12-06T03:43:51.465Z,56.20
2022-12-06T03:47:00.978Z,59.70
2022-12-06T03:50:11.795Z,58.10
2022-12-06T03:53:18.559Z,60.03
2022-12-06T03:56:23.710Z,59.97
2022-12-06T03:59:27.246Z,65.63
2022-12-06T04:02:30.865Z,60.03
2022-12-06T04:05:36.000Z,57.47
2022-12-06T04:08:40.138Z,55.07
2022-12-06T04:11:43.847Z,56.97
2022-12-06T04:14:47.494Z,64.60
2022-12-06T04:18:09.192Z,62.37
2022-12-06T04:21:31.943Z,57.67
2022-12-06T04:24:35.682Z,60.77
2022-12-06T04:27:56.883Z,67.33
2022-12-06T04:31:22.047Z,61.47
2022-12-06T04:34:43.707Z,65.80
2022-12-06T04:38:06.362Z,55.33
2022-12-06T04:41:10.114Z,65.90
2022-12-06T04:44:13.103Z,62.40
2022-12-06T04:47:16.914Z,62.40
2022-12-06T04:50:20.565Z,58.93
2022-12-06T04:53:25.633Z,60.00
2022-12-06T04:56:29.383Z,59.20
2022-12-06T04:59:33.134Z,55.93
2022-12-06T05:02:36.856Z,52.50
2022-12-06T05:05:40.975Z,59.10
2022-12-06T05:08:46.187Z,59.67
2022-12-06T05:11:49.854Z,50.60
2022-12-06T05:14:53.564Z,49.63
2022-12-06T05:17:57.249Z,45.40
2022-12-06T05:21:05.900Z,45.93
2022-12-06T05:24:11.464Z,43.20
2022-12-06T05:27:15.161Z,39.40
2022-12-06T05:30:19.134Z,43.77
2022-12-06T05:33:23.394Z,43.23
2022-12-06T05:36:28.696Z,39.43
2022-12-06T05:39:33.924Z,37.93
2022-12-06T05:42:37.954Z,35.10
2022-12-06T05:45:42.419Z,35.83
2022-12-06T05:48:46.234Z,36.63
2022-12-06T05:51:49.943Z,40.83
2022-12-06T05:54:55.095Z,35.77
2022-12-06T05:57:58.834Z,36.47
2022-12-06T06:01:02.684Z,39.83
2022-12-06T06:04:06.693Z,42.20
2022-12-06T06:07:10.313Z,47.80
2022-12-06T06:10:16.153Z,37.43
2022-12-06T06:13:19.794Z,37.00
2022-12-06T06:16:23.678Z,44.47
2022-12-06T06:19:27.425Z,39.93
2022-12-06T06:22:31.184Z,49.73
2022-12-06T06:25:36.304Z,46.77
2022-12-06T06:28:40.594Z,43.10
2022-12-06T06:31:44.349Z,39.60
2022-12-06T06:34:48.094Z,42.17
2022-12-06T06:37:51.823Z,41.03
2022-12-06T06:40:57.053Z,46.73
2022-12-06T06:44:00.774Z,49.17
2022-12-06T06:47:05.124Z,43.00
2022-12-06T06:50:10.017Z,43.87
2022-12-06T06:53:13.865Z,47.47
2022-12-06T06:56:20.354Z,45.33
2022-12-06T06:59:24.273Z,48.57
2022-12-06T07:02:28.098Z,49.23
2022-12-06T07:05:31.924Z,54.70
2022-12-06T07:08:36.056Z,56.17
2022-12-06T07:11:41.164Z,65.47
2022-12-06T07:14:44.845Z,65.97
2022-12-06T07:17:48.537Z,66.23
2022-12-06T07:21:01.249Z,64.67
2022-12-06T07:24:05.105Z,67.87
2022-12-06T07:27:10.593Z,59.53
2022-12-06T07:30:17.151Z,56.33
2022-12-06T07:33:21.915Z,53.20
2022-12-06T07:36:26.144Z,53.07
2022-12-06T07:39:32.276Z,55.93
2022-12-06T07:42:55.051Z,60.67
2022-12-06T07:45:58.824Z,56.83
2022-12-06T07:49:02.675Z,56.80
2022-12-06T07:52:06.476Z,63.20
2022-12-06T07:55:11.786Z,60.43
2022-12-06T07:58:16.952Z,55.57
2022-12-06T08:01:20.954Z,54.97
2022-12-06T08:04:24.921Z,56.93
2022-12-06T08:07:29.084Z,60.23
2022-12-06T08:10:32.875Z,63.77
2022-12-06T08:13:39.214Z,60.53
2022-12-06T08:16:43.163Z,66.57
2022-12-06T08:19:47.243Z,65.13
2022-12-06T08:22:50.944Z,59.90
2022-12-06T08:25:58.993Z,56.30
2022-12-06T08:29:04.272Z,55.53
2022-12-06T08:32:07.994Z,51.30
2022-12-06T08:35:11.583Z,47.23
2022-12-06T08:38:15.364Z,43.03
2022-12-06T08:41:37.493Z,48.03
2022-12-06T08:44:42.744Z,51.33
2022-12-06T08:47:46.337Z,55.53
2022-12-06T08:50:50.054Z,56.03
2022-12-06T08:53:54.733Z,51.93
2022-12-06T08:56:58.964Z,54.93
2022-12-06T09:00:06.397Z,62.10
2022-12-06T09:03:10.124Z,63.10
2022-12-06T09:06:14.314Z,67.50
2022-12-06T09:09:19.527Z,65.33
2022-12-06T09:12:23.546Z,62.07
2022-12-06T09:15:28.897Z,62.33
2022-12-06T09:18:32.994Z,49.70
2022-12-06T09:21:39.654Z,53.53
2022-12-06T09:24:43.386Z,53.27
2022-12-06T09:27:47.114Z,56.73
2022-12-06T09:30:52.551Z,54.77
2022-12-06T09:33:56.283Z,52.83
2022-12-06T09:37:05.476Z,51.40
2022-12-06T09:40:15.767Z,52.43
2022-12-06T09:43:34.234Z,53.50
2022-12-06T09:46:54.757Z,60.30
2022-12-06T09:50:13.644Z,59.50
2022-12-06T09:53:24.845Z,50.50
2022-12-06T09:56:34.804Z,50.33
2022-12-06T09:59:48.864Z,56.17
2022-12-06T10:03:16.599Z,49.57
2022-12-06T10:06:24.553Z,51.23
2022-12-06T10:09:40.063Z,50.73
2022-12-06T10:13:04.774Z,52.47
2022-12-06T10:16:17.429Z,48.77
2022-12-06T10:19:33.684Z,54.13
2022-12-06T10:22:50.864Z,47.30
2022-12-06T10:26:02.647Z,51.70
2022-12-06T10:29:17.924Z,52.20
2022-12-06T10:32:35.673Z,48.27
2022-12-06T10:35:46.204Z,42.27
2022-12-06T10:38:54.871Z,47.70
2022-12-06T10:42:04.354Z,42.40
2022-12-06T10:45:32.964Z,50.67
2022-12-06T10:48:43.724Z,47.90
2022-12-06T10:51:56.093Z,51.43
2022-12-06T10:55:06.643Z,44.83
2022-12-06T10:58:17.223Z,51.30
2022-12-06T11:01:25.510Z,51.73
2022-12-06T11:04:34.153Z,53.40
2022-12-06T11:07:45.133Z,51.73
2022-12-06T11:10:49.886Z,55.37
2022-12-06T11:13:58.333Z,58.97
2022-12-06T11:17:06.033Z,70.70
2022-12-06T11:20:24.206Z,63.13
2022-12-06T11:23:38.405Z,67.13
2022-12-06T11:26:46.436Z,59.63
2022-12-06T11:29:51.606Z,67.50
2022-12-06T11:32:56.083Z,54.83
2022-12-06T11:36:02.704Z,47.20
2022-12-06T11:39:07.904Z,52.80
2022-12-06T11:42:14.745Z,59.57
2022-12-06T11:45:23.405Z,52.70
2022-12-06T11:48:29.614Z,58.07
2022-12-06T11:51:33.447Z,57.43
2022-12-06T11:54:44.045Z,46.77
2022-12-06T11:57:54.044Z,67.57
2022-12-06T12:01:01.150Z,55.83
2022-12-06T12:04:25.833Z,54.73
2022-12-06T12:07:29.918Z,57.70
2022-12-06T12:10:38.511Z,51.07
2022-12-06T12:13:53.043Z,47.63
2022-12-06T12:17:01.600Z,54.20
2022-12-06T12:20:09.074Z,56.63
2022-12-06T12:23:20.163Z,49.83
2022-12-06T12:26:25.605Z,51.03
2022-12-06T12:29:29.644Z,52.40
2022-12-06T12:32:33.491Z,54.90
2022-12-06T12:35:39.452Z,49.73
2022-12-06T12:38:50.422Z,53.53
2022-12-06T12:41:55.713Z,52.03
2022-12-06T12:45:02.486Z,53.90
2022-12-06T12:48:24.126Z,47.33
2022-12-06T12:51:35.335Z,44.60
2022-12-06T12:54:39.333Z,38.07
2022-12-06T12:57:46.726Z,48.17
2022-12-06T13:00:51.828Z,45.47
2022-12-06T13:03:58.845Z,53.13
2022-12-06T13:07:05.704Z,49.40
2022-12-06T13:10:18.853Z,51.30
2022-12-06T13:13:28.928Z,46.47
2022-12-06T13:16:36.930Z,45.43
2022-12-06T13:19:53.039Z,47.73
2022-12-06T13:23:01.813Z,49.13
2022-12-06T13:26:19.911Z,45.17
2022-12-06T13:29:31.163Z,50.63
2022-12-06T13:32:40.353Z,56.43
2022-12-06T13:35:49.514Z,47.73
2022-12-06T13:38:53.364Z,51.87
2022-12-06T13:42:16.754Z,58.13
2022-12-06T13:45:43.559Z,51.40
2022-12-06T13:48:52.017Z,61.70
2022-12-06T13:51:55.813Z,61.63
2022-12-06T13:54:59.573Z,52.27
2022-12-06T13:58:40.974Z,64.27
2022-12-06T14:01:47.587Z,49.90
2022-12-06T14:04:51.733Z,52.70
2022-12-06T14:07:59.111Z,56.10
2022-12-06T14:11:19.444Z,48.47
2022-12-06T14:14:24.955Z,49.07
2022-12-06T14:18:01.483Z,52.23
2022-12-06T14:21:03.943Z,54.10
2022-12-06T14:24:07.985Z,55.37
2022-12-06T14:27:16.143Z,50.27
2022-12-06T14:30:25.981Z,50.20
2022-12-06T14:33:31.664Z,50.53
2022-12-06T14:36:37.038Z,48.33
2022-12-06T14:39:40.863Z,44.00
2022-12-06T14:43:02.054Z,47.80
2022-12-06T14:46:09.030Z,46.50
2022-12-06T14:49:37.796Z,48.03
2022-12-06T14:52:58.923Z,53.53
2022-12-06T14:56:05.854Z,50.57
2022-12-06T14:59:13.513Z,50.93
2022-12-06T15:02:24.128Z,51.57
2022-12-06T15:05:38.066Z,47.03
2022-12-06T15:08:43.634Z,48.97
2022-12-06T15:12:04.983Z,49.03
2022-12-06T15:15:33.055Z,43.43
2022-12-06T15:18:38.823Z,55.10
2022-12-06T15:21:44.245Z,55.43
2022-12-06T15:24:50.844Z,50.43
2022-12-06T15:27:54.677Z,54.83
2022-12-06T15:30:58.843Z,41.07
2022-12-06T15:34:02.723Z,40.77
2022-12-06T15:37:37.462Z,45.27
2022-12-06T15:40:31.704Z,40.30
2022-12-06T15:43:36.564Z,48.77
2022-12-06T15:46:41.051Z,53.00
2022-12-06T15:49:45.687Z,46.30
2022-12-06T15:52:50.907Z,43.07
2022-12-06T15:55:55.117Z,41.30
2022-12-06T15:58:58.883Z,46.80
2022-12-06T16:02:02.881Z,50.30
2022-12-06T16:05:07.297Z,43.93
2022-12-06T16:08:13.409Z,46.20
2022-12-06T16:11:19.358Z,52.63
2022-12-06T16:14:22.925Z,44.60
2022-12-06T16:17:26.625Z,42.87
2022-12-06T16:20:33.284Z,46.10
2022-12-06T16:24:13.443Z,36.40
2022-12-06T16:27:17.873Z,39.43
2022-12-06T16:30:33.255Z,40.27
2022-12-06T16:33:37.092Z,45.30
2022-12-06T16:36:58.377Z,47.87
2022-12-06T16:40:03.601Z,56.10
2022-12-06T16:43:07.284Z,50.40
2022-12-06T16:46:27.891Z,49.17
2022-12-06T16:49:49.065Z,49.33
2022-12-06T16:52:53.443Z,59.93
2022-12-06T16:55:58.586Z,50.73
2022-12-06T16:59:02.714Z,54.90
2022-12-06T17:02:19.653Z,95.27
2022-12-06T17:05:25.807Z,78.23
2022-12-06T17:08:29.560Z,56.13
2022-12-06T17:11:54.208Z,52.70
2022-12-06T17:14:58.419Z,61.60
2022-12-06T17:18:02.343Z,70.37
2022-12-06T17:21:08.013Z,54.33
2022-12-06T17:24:12.376Z,71.73
2022-12-06T17:27:18.352Z,59.37
2022-12-06T17:30:23.592Z,78.83
2022-12-06T17:33:27.313Z,83.30
2022-12-06T17:36:31.523Z,61.43
2022-12-06T17:39:35.481Z,75.37
2022-12-06T17:42:58.097Z,95.63
2022-12-06T17:46:08.832Z,66.40
2022-12-06T17:49:15.523Z,75.03
2022-12-06T17:52:19.344Z,80.80
2022-12-06T17:55:23.136Z,70.23
2022-12-06T17:58:28.304Z,73.87
2022-12-06T18:01:51.270Z,73.43
2022-12-06T18:04:56.794Z,78.10
2022-12-06T18:08:00.739Z,70.77
2022-12-06T18:11:06.243Z,85.03
2022-12-06T18:14:13.043Z,71.90
2022-12-06T18:17:16.864Z,80.33
2022-12-06T18:20:20.616Z,63.67
2022-12-06T18:23:24.303Z,72.37
2022-12-06T18:26:28.614Z,69.30
2022-12-06T18:29:34.385Z,71.67
2022-12-06T18:32:38.143Z,69.40
2022-12-06T18:35:41.863Z,86.77
2022-12-06T18:38:46.133Z,74.00
2022-12-06T18:41:49.793Z,85.67
2022-12-06T18:44:58.278Z,97.70
2022-12-06T18:48:03.197Z,96.30
2022-12-06T18:51:07.883Z,98.63
2022-12-06T18:54:14.131Z,102.30
2022-12-06T18:57:18.053Z,105.93
2022-12-06T19:00:24.014Z,103.87
2022-12-06T19:03:27.754Z,176.20
2022-12-06T19:06:33.483Z,110.57
2022-12-06T19:09:37.253Z,115.00
2022-12-06T19:12:41.004Z,88.53
2022-12-06T19:15:46.083Z,127.50
2022-12-06T19:18:50.133Z,101.13
2022-12-06T19:21:55.793Z,87.17
2022-12-06T19:24:59.393Z,77.03
2022-12-06T19:28:03.273Z,77.53
2022-12-06T19:31:11.141Z,77.13
2022-12-06T19:34:16.927Z,84.13
2022-12-06T19:37:20.604Z,81.53
2022-12-06T19:40:24.394Z,81.20
2022-12-06T19:43:45.720Z,78.30
2022-12-06T19:46:50.983Z,85.77
2022-12-06T19:49:54.834Z,101.13
2022-12-06T19:52:58.444Z,93.63
2022-12-06T19:56:02.306Z,84.40
2022-12-06T19:59:11.868Z,88.40
2022-12-06T20:02:17.134Z,95.37
2022-12-06T20:05:20.787Z,89.43
2022-12-06T20:08:24.543Z,92.23
2022-12-06T20:11:47.020Z,85.33
2022-12-06T20:14:51.251Z,78.33
2022-12-06T20:17:56.447Z,87.73
2022-12-06T20:21:00.246Z,87.60
2022-12-06T20:24:04.171Z,98.83
2022-12-06T20:27:07.894Z,104.37
2022-12-06T20:30:12.734Z,79.93
2022-12-06T20:33:17.966Z,95.73
2022-12-06T20:36:23.303Z,90.50
2022-12-06T20:39:28.776Z,80.23
2022-12-06T20:42:33.663Z,73.70
2022-12-06T20:45:37.634Z,76.77
2022-12-06T20:48:43.894Z,83.03
2022-12-06T20:51:52.561Z,83.37
2022-12-06T20:54:56.874Z,81.20
2022-12-06T20:58:00.694Z,79.67
2022-12-06T21:01:05.025Z,74.83
2022-12-06T21:04:14.302Z,74.97
2022-12-06T21:07:17.995Z,72.47
2022-12-06T21:10:21.825Z,70.27
2022-12-06T21:13:26.565Z,73.20
2022-12-06T21:16:31.584Z,76.23
2022-12-06T21:19:36.803Z,74.67
2022-12-06T21:22:40.545Z,81.13
2022-12-06T21:25:44.163Z,79.20
2022-12-06T21:28:47.966Z,75.97
2022-12-06T21:31:51.693Z,83.30
2022-12-06T21:34:56.922Z,73.40
2022-12-06T21:38:00.491Z,80.83
2022-12-06T21:41:09.375Z,80.23
2022-12-06T21:44:13.070Z,68.70
2022-12-06T21:47:16.684Z,70.93
2022-12-06T21:50:21.857Z,67.17
2022-12-06T21:53:25.524Z,70.37
2022-12-06T21:56:31.133Z,65.67
2022-12-06T21:59:34.903Z,69.97
2022-12-06T22:02:38.679Z,67.97
2022-12-06T22:05:44.364Z,66.90
2022-12-06T22:08:49.756Z,68.40
2022-12-06T22:11:53.516Z,65.60
2022-12-06T22:14:57.245Z,64.63
2022-12-06T22:18:00.954Z,69.97
2022-12-06T22:21:08.024Z,63.57
2022-12-06T22:24:11.735Z,65.40
2022-12-06T22:27:15.424Z,66.70
2022-12-06T22:30:19.518Z,66.67
2022-12-06T22:33:23.223Z,57.67
2022-12-06T22:36:29.203Z,64.73
2022-12-06T22:39:32.781Z,63.90
2022-12-06T22:42:36.893Z,62.97
2022-12-06T22:45:40.488Z,64.30
2022-12-06T22:48:44.961Z,60.53
2022-12-06T22:51:50.070Z,52.77
2022-12-06T22:54:53.668Z,58.93
2022-12-06T22:57:57.171Z,49.47
2022-12-06T23:01:00.823Z,53.43
2022-12-06T23:04:06.807Z,58.83
2022-12-06T23:07:12.254Z,56.57
2022-12-06T23:10:16.296Z,55.63
2022-12-06T23:13:20.029Z,55.60
2022-12-06T23:16:25.494Z,44.13
2022-12-06T23:19:29.418Z,47.20
2022-12-06T23:22:34.805Z,52.00
2022-12-06T23:25:38.546Z,53.97
2022-12-06T23:28:42.295Z,54.63
2022-12-06T23:31:47.277Z,50.67
2022-12-06T23:34:51.086Z,56.07
2022-12-06T23:37:56.306Z,55.47
2022-12-06T23:41:04.067Z,51.20
2022-12-06T23:44:08.876Z,53.93
2022-12-06T23:47:12.752Z,55.83
2022-12-06T23:50:16.646Z,54.77
2022-12-06T23:53:21.867Z,45.87
2022-12-06T23:56:27.003Z,49.43
2022-12-06T23:59:30.653Z,54.30
